Terminal Aerodrome Forecast
Issued by NWS La Crosse, WI

Home | Current Version | Previous Version | Text Only | Print | Product List | Glossary On
Versions: 1 2 3 4 5 6 7 8 9 10 11 12 13 14 15 16 17 18 19 20 21 22 23 24 25 26 27 28 29 30 31 32 33 34 35 36 37 38 39 40 41 42 43 44
738
FTUS43 KARX 011944 AAA
TAFLSE
TAF AMD
KLSE 011944Z 0120/0218 32015G24KT P6SM OVC020
     FM012100 32014KT P6SM OVC025
     FM020100 31008KT P6SM -SN OVC020
     FM020700 31007KT P6SM OVC017
     FM021400 33008KT P6SM VCSH OVC015=

USA.gov is the U.S. government's official web portal to all federal, state and local government web resources and services.